sensor_id;sensor_type;location;lat;lon;timestamp;P1;durP1;ratioP1;P2;durP2;ratioP2
63567;SDS011;49715;42.386;20.434;2023-03-04T00:00:03;12.68;;;8.00;;
63567;SDS011;49715;42.386;20.434;2023-03-04T00:02:37;18.65;;;8.77;;
63567;SDS011;49715;42.386;20.434;2023-03-04T00:05:04;21.33;;;8.60;;
63567;SDS011;49715;42.386;20.434;2023-03-04T00:07:32;19.25;;;7.60;;
63567;SDS011;49715;42.386;20.434;2023-03-04T00:09:58;23.77;;;11.93;;
63567;SDS011;49715;42.386;20.434;2023-03-04T00:12:24;22.23;;;12.73;;
63567;SDS011;49715;42.386;20.434;2023-03-04T00:14:51;29.67;;;17.67;;
63567;SDS011;49715;42.386;20.434;2023-03-04T00:17:17;27.38;;;12.73;;
63567;SDS011;49715;42.386;20.434;2023-03-04T00:19:44;19.33;;;13.38;;
63567;SDS011;49715;42.386;20.434;2023-03-04T00:22:11;24.75;;;13.95;;
63567;SDS011;49715;42.386;20.434;2023-03-04T00:24:37;20.50;;;12.75;;
63567;SDS011;49715;42.386;20.434;2023-03-04T00:27:04;20.88;;;13.35;;
63567;SDS011;49715;42.386;20.434;2023-03-04T00:29:30;13.63;;;8.27;;
63567;SDS011;49715;42.386;20.434;2023-03-04T00:31:57;15.90;;;8.10;;
63567;SDS011;49715;42.386;20.434;2023-03-04T00:34:23;16.47;;;8.50;;
63567;SDS011;49715;42.386;20.434;2023-03-04T00:36:50;14.43;;;8.20;;
63567;SDS011;49715;42.386;20.434;2023-03-04T00:39:16;13.82;;;8.20;;
63567;SDS011;49715;42.386;20.434;2023-03-04T00:41:43;12.60;;;8.13;;
63567;SDS011;49715;42.386;20.434;2023-03-04T00:44:09;14.95;;;8.02;;
63567;SDS011;49715;42.386;20.434;2023-03-04T00:46:36;14.55;;;7.90;;
63567;SDS011;49715;42.386;20.434;2023-03-04T00:49:03;15.98;;;7.80;;
63567;SDS011;49715;42.386;20.434;2023-03-04T00:51:29;16.33;;;7.45;;
63567;SDS011;49715;42.386;20.434;2023-03-04T00:53:56;14.55;;;7.05;;
63567;SDS011;49715;42.386;20.434;2023-03-04T00:56:22;14.27;;;7.18;;
63567;SDS011;49715;42.386;20.434;2023-03-04T00:58:49;17.40;;;7.47;;
63567;SDS011;49715;42.386;20.434;2023-03-04T01:01:15;13.52;;;7.40;;
63567;SDS011;49715;42.386;20.434;2023-03-04T01:03:42;14.63;;;7.45;;
63567;SDS011;49715;42.386;20.434;2023-03-04T01:06:09;13.40;;;7.88;;
63567;SDS011;49715;42.386;20.434;2023-03-04T01:08:37;18.88;;;7.78;;
63567;SDS011;49715;42.386;20.434;2023-03-04T01:11:05;18.83;;;8.38;;
63567;SDS011;49715;42.386;20.434;2023-03-04T01:15:58;14.15;;;7.57;;
63567;SDS011;49715;42.386;20.434;2023-03-04T01:18:25;21.70;;;9.27;;
63567;SDS011;49715;42.386;20.434;2023-03-04T01:20:52;23.52;;;11.07;;
63567;SDS011;49715;42.386;20.434;2023-03-04T01:23:19;15.32;;;7.65;;
63567;SDS011;49715;42.386;20.434;2023-03-04T01:25:45;12.83;;;7.27;;
63567;SDS011;49715;42.386;20.434;2023-03-04T01:28:12;12.20;;;8.80;;
63567;SDS011;49715;42.386;20.434;2023-03-04T01:30:40;15.60;;;7.60;;
63567;SDS011;49715;42.386;20.434;2023-03-04T01:33:06;16.58;;;7.88;;
63567;SDS011;49715;42.386;20.434;2023-03-04T01:35:33;13.60;;;8.63;;
63567;SDS011;49715;42.386;20.434;2023-03-04T01:37:59;11.37;;;7.20;;
63567;SDS011;49715;42.386;20.434;2023-03-04T01:40:26;13.27;;;7.67;;
63567;SDS011;49715;42.386;20.434;2023-03-04T01:42:53;14.65;;;7.85;;
63567;SDS011;49715;42.386;20.434;2023-03-04T01:45:20;11.93;;;7.53;;
63567;SDS011;49715;42.386;20.434;2023-03-04T01:47:47;13.30;;;8.60;;
63567;SDS011;49715;42.386;20.434;2023-03-04T01:50:20;17.10;;;9.60;;
63567;SDS011;49715;42.386;20.434;2023-03-04T01:52:52;22.13;;;9.77;;
63567;SDS011;49715;42.386;20.434;2023-03-04T01:55:19;15.13;;;8.93;;
63567;SDS011;49715;42.386;20.434;2023-03-04T01:57:48;15.10;;;8.50;;
63567;SDS011;49715;42.386;20.434;2023-03-04T02:00:29;12.13;;;8.38;;
63567;SDS011;49715;42.386;20.434;2023-03-04T02:02:58;19.10;;;8.80;;
63567;SDS011;49715;42.386;20.434;2023-03-04T02:05:34;19.08;;;9.10;;
63567;SDS011;49715;42.386;20.434;2023-03-04T02:08:04;15.00;;;7.53;;
63567;SDS011;49715;42.386;20.434;2023-03-04T02:10:31;14.20;;;7.75;;
63567;SDS011;49715;42.386;20.434;2023-03-04T02:12:59;15.90;;;7.57;;
63567;SDS011;49715;42.386;20.434;2023-03-04T02:15:27;15.80;;;8.27;;
63567;SDS011;49715;42.386;20.434;2023-03-04T02:17:55;15.73;;;7.85;;
63567;SDS011;49715;42.386;20.434;2023-03-04T02:28:47;19.67;;;9.48;;
63567;SDS011;49715;42.386;20.434;2023-03-04T02:31:30;21.58;;;8.82;;
63567;SDS011;49715;42.386;20.434;2023-03-04T02:33:58;24.63;;;9.48;;
63567;SDS011;49715;42.386;20.434;2023-03-04T02:36:26;16.98;;;9.05;;
63567;SDS011;49715;42.386;20.434;2023-03-04T02:38:55;17.50;;;9.45;;
63567;SDS011;49715;42.386;20.434;2023-03-04T02:41:26;25.98;;;9.90;;
63567;SDS011;49715;42.386;20.434;2023-03-04T02:43:55;20.42;;;9.82;;
63567;SDS011;49715;42.386;20.434;2023-03-04T02:46:22;27.05;;;10.07;;
63567;SDS011;49715;42.386;20.434;2023-03-04T02:48:49;26.63;;;10.60;;
63567;SDS011;49715;42.386;20.434;2023-03-04T02:51:16;24.92;;;9.73;;
63567;SDS011;49715;42.386;20.434;2023-03-04T02:53:43;27.47;;;11.13;;
63567;SDS011;49715;42.386;20.434;2023-03-04T02:56:11;18.73;;;9.90;;
63567;SDS011;49715;42.386;20.434;2023-03-04T02:58:37;21.30;;;9.93;;
63567;SDS011;49715;42.386;20.434;2023-03-04T03:01:05;19.13;;;9.38;;
63567;SDS011;49715;42.386;20.434;2023-03-04T03:05:58;18.92;;;9.35;;
63567;SDS011;49715;42.386;20.434;2023-03-04T03:08:25;19.35;;;9.20;;
63567;SDS011;49715;42.386;20.434;2023-03-04T03:10:53;20.95;;;9.57;;
63567;SDS011;49715;42.386;20.434;2023-03-04T03:13:21;18.80;;;9.18;;
63567;SDS011;49715;42.386;20.434;2023-03-04T03:15:48;21.33;;;9.30;;
63567;SDS011;49715;42.386;20.434;2023-03-04T03:18:14;18.85;;;8.93;;
63567;SDS011;49715;42.386;20.434;2023-03-04T03:20:41;19.70;;;9.73;;
63567;SDS011;49715;42.386;20.434;2023-03-04T03:23:08;21.30;;;9.05;;
63567;SDS011;49715;42.386;20.434;2023-03-04T03:25:35;18.42;;;9.57;;
63567;SDS011;49715;42.386;20.434;2023-03-04T03:28:02;19.20;;;9.73;;
63567;SDS011;49715;42.386;20.434;2023-03-04T03:30:28;20.48;;;9.27;;
63567;SDS011;49715;42.386;20.434;2023-03-04T03:32:55;18.20;;;8.80;;
63567;SDS011;49715;42.386;20.434;2023-03-04T03:35:23;21.80;;;10.43;;
63567;SDS011;49715;42.386;20.434;2023-03-04T03:38:14;23.13;;;10.07;;
63567;SDS011;49715;42.386;20.434;2023-03-04T03:40:40;18.95;;;9.32;;
63567;SDS011;49715;42.386;20.434;2023-03-04T03:43:07;22.90;;;10.40;;
63567;SDS011;49715;42.386;20.434;2023-03-04T03:45:33;21.55;;;9.20;;
63567;SDS011;49715;42.386;20.434;2023-03-04T03:47:59;19.20;;;8.90;;
63567;SDS011;49715;42.386;20.434;2023-03-04T03:50:26;15.97;;;8.83;;
63567;SDS011;49715;42.386;20.434;2023-03-04T03:52:54;23.23;;;9.32;;
63567;SDS011;49715;42.386;20.434;2023-03-04T03:55:21;15.95;;;8.68;;
63567;SDS011;49715;42.386;20.434;2023-03-04T03:57:48;17.25;;;8.43;;
63567;SDS011;49715;42.386;20.434;2023-03-04T04:00:14;16.33;;;8.20;;
63567;SDS011;49715;42.386;20.434;2023-03-04T04:05:09;19.10;;;8.20;;
63567;SDS011;49715;42.386;20.434;2023-03-04T04:07:36;20.48;;;8.43;;
63567;SDS011;49715;42.386;20.434;2023-03-04T04:10:04;26.10;;;8.73;;
63567;SDS011;49715;42.386;20.434;2023-03-04T04:12:30;18.30;;;7.95;;
63567;SDS011;49715;42.386;20.434;2023-03-04T04:14:57;19.90;;;8.68;;
63567;SDS011;49715;42.386;20.434;2023-03-04T04:17:23;20.80;;;8.53;;
63567;SDS011;49715;42.386;20.434;2023-03-04T04:19:50;12.53;;;7.97;;
63567;SDS011;49715;42.386;20.434;2023-03-04T04:22:17;15.10;;;8.10;;
63567;SDS011;49715;42.386;20.434;2023-03-04T04:24:46;16.92;;;7.70;;
63567;SDS011;49715;42.386;20.434;2023-03-04T04:27:13;15.88;;;8.38;;
63567;SDS011;49715;42.386;20.434;2023-03-04T04:29:40;13.48;;;8.10;;
63567;SDS011;49715;42.386;20.434;2023-03-04T04:32:07;19.73;;;8.48;;
63567;SDS011;49715;42.386;20.434;2023-03-04T04:34:34;20.48;;;8.85;;
63567;SDS011;49715;42.386;20.434;2023-03-04T04:37:00;25.83;;;9.23;;
63567;SDS011;49715;42.386;20.434;2023-03-04T04:39:27;18.47;;;9.40;;
63567;SDS011;49715;42.386;20.434;2023-03-04T04:41:53;20.23;;;10.60;;
63567;SDS011;49715;42.386;20.434;2023-03-04T04:44:20;21.17;;;10.15;;
63567;SDS011;49715;42.386;20.434;2023-03-04T04:46:46;15.32;;;8.90;;
63567;SDS011;49715;42.386;20.434;2023-03-04T04:49:13;17.80;;;8.60;;
63567;SDS011;49715;42.386;20.434;2023-03-04T04:51:39;14.20;;;7.37;;
63567;SDS011;49715;42.386;20.434;2023-03-04T04:54:06;12.90;;;7.90;;
63567;SDS011;49715;42.386;20.434;2023-03-04T04:56:32;15.95;;;8.20;;
63567;SDS011;49715;42.386;20.434;2023-03-04T04:59:00;15.38;;;9.07;;
63567;SDS011;49715;42.386;20.434;2023-03-04T05:01:29;20.15;;;9.05;;
63567;SDS011;49715;42.386;20.434;2023-03-04T05:03:57;13.90;;;8.13;;
63567;SDS011;49715;42.386;20.434;2023-03-04T05:06:23;16.70;;;8.63;;
63567;SDS011;49715;42.386;20.434;2023-03-04T05:08:50;17.17;;;8.82;;
63567;SDS011;49715;42.386;20.434;2023-03-04T05:11:17;20.80;;;8.50;;
63567;SDS011;49715;42.386;20.434;2023-03-04T05:13:45;17.33;;;8.35;;
63567;SDS011;49715;42.386;20.434;2023-03-04T05:18:38;12.43;;;7.40;;
63567;SDS011;49715;42.386;20.434;2023-03-04T05:21:05;13.10;;;8.35;;
63567;SDS011;49715;42.386;20.434;2023-03-04T05:23:33;16.38;;;8.63;;
63567;SDS011;49715;42.386;20.434;2023-03-04T05:26:02;12.13;;;7.80;;
63567;SDS011;49715;42.386;20.434;2023-03-04T05:28:29;14.68;;;8.07;;
63567;SDS011;49715;42.386;20.434;2023-03-04T05:30:56;13.77;;;8.05;;
63567;SDS011;49715;42.386;20.434;2023-03-04T05:33:23;15.70;;;9.18;;
63567;SDS011;49715;42.386;20.434;2023-03-04T05:35:49;19.52;;;13.50;;
63567;SDS011;49715;42.386;20.434;2023-03-04T05:38:17;18.45;;;11.70;;
63567;SDS011;49715;42.386;20.434;2023-03-04T05:40:45;15.23;;;10.23;;
63567;SDS011;49715;42.386;20.434;2023-03-04T05:43:13;14.93;;;9.00;;
63567;SDS011;49715;42.386;20.434;2023-03-04T05:45:40;17.75;;;8.90;;
63567;SDS011;49715;42.386;20.434;2023-03-04T05:48:07;15.60;;;7.55;;
63567;SDS011;49715;42.386;20.434;2023-03-04T05:50:33;14.57;;;8.05;;
63567;SDS011;49715;42.386;20.434;2023-03-04T05:53:00;16.13;;;8.57;;
63567;SDS011;49715;42.386;20.434;2023-03-04T05:55:27;18.35;;;9.40;;
63567;SDS011;49715;42.386;20.434;2023-03-04T05:57:55;16.08;;;9.45;;
63567;SDS011;49715;42.386;20.434;2023-03-04T06:00:25;15.75;;;9.07;;
63567;SDS011;49715;42.386;20.434;2023-03-04T06:02:51;21.77;;;8.65;;
63567;SDS011;49715;42.386;20.434;2023-03-04T06:05:18;20.70;;;8.23;;
63567;SDS011;49715;42.386;20.434;2023-03-04T06:07:45;23.17;;;8.57;;
63567;SDS011;49715;42.386;20.434;2023-03-04T06:10:13;16.20;;;8.48;;
63567;SDS011;49715;42.386;20.434;2023-03-04T06:12:42;18.65;;;8.23;;
63567;SDS011;49715;42.386;20.434;2023-03-04T06:15:09;18.88;;;8.27;;
63567;SDS011;49715;42.386;20.434;2023-03-04T06:17:36;17.60;;;9.13;;
63567;SDS011;49715;42.386;20.434;2023-03-04T06:20:03;14.18;;;8.45;;
63567;SDS011;49715;42.386;20.434;2023-03-04T06:22:33;12.20;;;8.00;;
63567;SDS011;49715;42.386;20.434;2023-03-04T06:25:00;13.90;;;8.45;;
63567;SDS011;49715;42.386;20.434;2023-03-04T06:27:27;15.27;;;7.82;;
63567;SDS011;49715;42.386;20.434;2023-03-04T06:29:53;14.15;;;7.57;;
63567;SDS011;49715;42.386;20.434;2023-03-04T06:32:20;18.90;;;7.65;;
63567;SDS011;49715;42.386;20.434;2023-03-04T06:34:46;16.35;;;7.72;;
63567;SDS011;49715;42.386;20.434;2023-03-04T06:37:13;16.05;;;8.52;;
63567;SDS011;49715;42.386;20.434;2023-03-04T06:39:39;11.88;;;7.53;;
63567;SDS011;49715;42.386;20.434;2023-03-04T06:42:06;15.57;;;8.17;;
63567;SDS011;49715;42.386;20.434;2023-03-04T06:44:34;11.68;;;7.63;;
63567;SDS011;49715;42.386;20.434;2023-03-04T06:47:04;16.70;;;8.45;;
63567;SDS011;49715;42.386;20.434;2023-03-04T06:49:34;14.02;;;8.23;;
63567;SDS011;49715;42.386;20.434;2023-03-04T06:54:33;14.93;;;7.40;;
63567;SDS011;49715;42.386;20.434;2023-03-04T06:57:03;13.98;;;8.70;;
63567;SDS011;49715;42.386;20.434;2023-03-04T06:59:33;14.85;;;8.77;;
63567;SDS011;49715;42.386;20.434;2023-03-04T07:02:05;15.32;;;8.52;;
63567;SDS011;49715;42.386;20.434;2023-03-04T07:05:03;14.90;;;8.23;;
63567;SDS011;49715;42.386;20.434;2023-03-04T07:07:33;14.48;;;8.07;;
63567;SDS011;49715;42.386;20.434;2023-03-04T07:10:43;12.73;;;8.60;;
63567;SDS011;49715;42.386;20.434;2023-03-04T07:13:11;18.20;;;9.18;;
63567;SDS011;49715;42.386;20.434;2023-03-04T07:15:43;19.50;;;9.18;;
63567;SDS011;49715;42.386;20.434;2023-03-04T07:18:10;27.13;;;9.95;;
63567;SDS011;49715;42.386;20.434;2023-03-04T07:20:36;23.00;;;10.20;;
63567;SDS011;49715;42.386;20.434;2023-03-04T07:23:02;20.03;;;9.97;;
63567;SDS011;49715;42.386;20.434;2023-03-04T07:25:29;21.67;;;9.27;;
63567;SDS011;49715;42.386;20.434;2023-03-04T07:27:55;25.93;;;10.17;;
63567;SDS011;49715;42.386;20.434;2023-03-04T07:30:21;19.63;;;9.63;;
63567;SDS011;49715;42.386;20.434;2023-03-04T07:32:48;25.70;;;10.37;;
63567;SDS011;49715;42.386;20.434;2023-03-04T07:35:14;25.10;;;11.90;;
63567;SDS011;49715;42.386;20.434;2023-03-04T07:40:08;25.58;;;11.07;;
63567;SDS011;49715;42.386;20.434;2023-03-04T07:42:37;22.58;;;9.93;;
63567;SDS011;49715;42.386;20.434;2023-03-04T07:45:09;25.35;;;10.88;;
63567;SDS011;49715;42.386;20.434;2023-03-04T07:47:36;22.05;;;11.10;;
63567;SDS011;49715;42.386;20.434;2023-03-04T07:50:03;23.80;;;10.75;;
63567;SDS011;49715;42.386;20.434;2023-03-04T07:52:30;21.08;;;10.65;;
63567;SDS011;49715;42.386;20.434;2023-03-04T07:54:56;23.17;;;11.77;;
63567;SDS011;49715;42.386;20.434;2023-03-04T07:57:23;31.30;;;13.13;;
63567;SDS011;49715;42.386;20.434;2023-03-04T07:59:49;21.90;;;12.47;;
63567;SDS011;49715;42.386;20.434;2023-03-04T08:02:16;25.80;;;13.05;;
63567;SDS011;49715;42.386;20.434;2023-03-04T08:04:42;21.43;;;11.33;;
63567;SDS011;49715;42.386;20.434;2023-03-04T08:07:09;24.10;;;12.52;;
63567;SDS011;49715;42.386;20.434;2023-03-04T08:09:35;26.73;;;13.37;;
63567;SDS011;49715;42.386;20.434;2023-03-04T08:12:03;26.17;;;14.20;;
63567;SDS011;49715;42.386;20.434;2023-03-04T08:14:29;26.98;;;15.00;;
63567;SDS011;49715;42.386;20.434;2023-03-04T08:16:56;27.48;;;13.77;;
63567;SDS011;49715;42.386;20.434;2023-03-04T08:19:22;23.40;;;12.18;;
63567;SDS011;49715;42.386;20.434;2023-03-04T08:21:49;25.30;;;13.68;;
63567;SDS011;49715;42.386;20.434;2023-03-04T08:24:15;22.60;;;12.27;;
63567;SDS011;49715;42.386;20.434;2023-03-04T08:26:44;26.75;;;12.77;;
63567;SDS011;49715;42.386;20.434;2023-03-04T08:29:14;29.60;;;12.82;;
63567;SDS011;49715;42.386;20.434;2023-03-04T08:31:48;26.20;;;13.68;;
63567;SDS011;49715;42.386;20.434;2023-03-04T08:34:17;28.63;;;13.93;;
63567;SDS011;49715;42.386;20.434;2023-03-04T08:36:47;24.42;;;13.10;;
63567;SDS011;49715;42.386;20.434;2023-03-04T08:39:15;30.38;;;14.25;;
63567;SDS011;49715;42.386;20.434;2023-03-04T08:41:42;30.25;;;15.25;;
63567;SDS011;49715;42.386;20.434;2023-03-04T08:46:38;31.10;;;14.57;;
63567;SDS011;49715;42.386;20.434;2023-03-04T08:49:06;24.67;;;15.38;;
63567;SDS011;49715;42.386;20.434;2023-03-04T08:51:37;34.38;;;16.42;;
63567;SDS011;49715;42.386;20.434;2023-03-04T08:54:04;28.92;;;16.80;;
63567;SDS011;49715;42.386;20.434;2023-03-04T08:56:31;25.02;;;15.82;;
63567;SDS011;49715;42.386;20.434;2023-03-04T08:58:59;27.05;;;15.77;;
63567;SDS011;49715;42.386;20.434;2023-03-04T09:01:25;25.38;;;15.65;;
63567;SDS011;49715;42.386;20.434;2023-03-04T09:03:54;30.88;;;16.42;;
63567;SDS011;49715;42.386;20.434;2023-03-04T09:06:21;31.70;;;15.00;;
63567;SDS011;49715;42.386;20.434;2023-03-04T09:08:49;33.22;;;16.13;;
63567;SDS011;49715;42.386;20.434;2023-03-04T09:11:16;30.88;;;16.73;;
63567;SDS011;49715;42.386;20.434;2023-03-04T09:13:46;28.15;;;17.67;;
63567;SDS011;49715;42.386;20.434;2023-03-04T09:18:40;24.55;;;15.52;;
63567;SDS011;49715;42.386;20.434;2023-03-04T09:21:09;27.15;;;15.88;;
63567;SDS011;49715;42.386;20.434;2023-03-04T09:23:37;31.60;;;18.08;;
63567;SDS011;49715;42.386;20.434;2023-03-04T09:28:52;28.42;;;16.10;;
63567;SDS011;49715;42.386;20.434;2023-03-04T09:31:28;37.78;;;17.05;;
63567;SDS011;49715;42.386;20.434;2023-03-04T09:33:56;23.00;;;15.45;;
63567;SDS011;49715;42.386;20.434;2023-03-04T09:36:23;23.08;;;14.85;;
63567;SDS011;49715;42.386;20.434;2023-03-04T09:38:50;28.52;;;16.30;;
63567;SDS011;49715;42.386;20.434;2023-03-04T09:43:48;36.67;;;14.38;;
63567;SDS011;49715;42.386;20.434;2023-03-04T09:46:33;30.60;;;15.27;;
63567;SDS011;49715;42.386;20.434;2023-03-04T09:49:03;23.02;;;16.35;;
63567;SDS011;49715;42.386;20.434;2023-03-04T09:54:01;25.90;;;15.68;;
63567;SDS011;49715;42.386;20.434;2023-03-04T09:56:36;25.05;;;14.98;;
63567;SDS011;49715;42.386;20.434;2023-03-04T10:04:48;22.98;;;13.02;;
63567;SDS011;49715;42.386;20.434;2023-03-04T10:07:26;24.50;;;12.88;;
63567;SDS011;49715;42.386;20.434;2023-03-04T10:10:00;24.70;;;13.70;;
63567;SDS011;49715;42.386;20.434;2023-03-04T10:12:52;21.65;;;14.25;;
63567;SDS011;49715;42.386;20.434;2023-03-04T10:21:22;19.75;;;12.82;;
63567;SDS011;49715;42.386;20.434;2023-03-04T10:24:10;20.08;;;11.93;;
63567;SDS011;49715;42.386;20.434;2023-03-04T10:26:48;16.92;;;10.82;;
63567;SDS011;49715;42.386;20.434;2023-03-04T10:29:22;17.88;;;10.68;;
63567;SDS011;49715;42.386;20.434;2023-03-04T10:31:53;21.50;;;12.45;;
63567;SDS011;49715;42.386;20.434;2023-03-04T10:34:22;22.98;;;12.23;;
63567;SDS011;49715;42.386;20.434;2023-03-04T10:36:52;19.35;;;10.98;;
63567;SDS011;49715;42.386;20.434;2023-03-04T10:39:40;18.90;;;12.60;;
63567;SDS011;49715;42.386;20.434;2023-03-04T10:47:22;23.42;;;13.10;;
63567;SDS011;49715;42.386;20.434;2023-03-04T10:49:56;22.10;;;12.73;;
63567;SDS011;49715;42.386;20.434;2023-03-04T10:52:29;18.20;;;12.65;;
63567;SDS011;49715;42.386;20.434;2023-03-04T10:55:13;23.15;;;13.75;;
63567;SDS011;49715;42.386;20.434;2023-03-04T10:57:43;18.20;;;12.60;;
63567;SDS011;49715;42.386;20.434;2023-03-04T11:02:44;18.93;;;10.43;;
63567;SDS011;49715;42.386;20.434;2023-03-04T11:05:17;18.75;;;11.10;;
63567;SDS011;49715;42.386;20.434;2023-03-04T11:07:52;21.52;;;12.38;;
63567;SDS011;49715;42.386;20.434;2023-03-04T11:10:29;25.95;;;14.23;;
63567;SDS011;49715;42.386;20.434;2023-03-04T11:13:18;19.17;;;11.30;;
63567;SDS011;49715;42.386;20.434;2023-03-04T11:15:54;18.20;;;11.88;;
63567;SDS011;49715;42.386;20.434;2023-03-04T11:20:57;24.10;;;12.63;;
63567;SDS011;49715;42.386;20.434;2023-03-04T11:23:43;25.23;;;12.32;;
63567;SDS011;49715;42.386;20.434;2023-03-04T11:26:29;23.50;;;11.63;;
63567;SDS011;49715;42.386;20.434;2023-03-04T11:32:07;21.58;;;12.43;;
63567;SDS011;49715;42.386;20.434;2023-03-04T11:45:33;17.38;;;11.02;;
63567;SDS011;49715;42.386;20.434;2023-03-04T11:48:41;20.45;;;12.77;;
63567;SDS011;49715;42.386;20.434;2023-03-04T11:54:31;19.48;;;12.50;;
63567;SDS011;49715;42.386;20.434;2023-03-04T12:05:24;19.58;;;10.95;;
63567;SDS011;49715;42.386;20.434;2023-03-04T12:10:55;26.63;;;14.13;;
63567;SDS011;49715;42.386;20.434;2023-03-04T12:13:28;25.40;;;14.40;;
63567;SDS011;49715;42.386;20.434;2023-03-04T12:33:02;29.10;;;12.27;;
63567;SDS011;49715;42.386;20.434;2023-03-04T12:44:18;22.73;;;11.07;;
63567;SDS011;49715;42.386;20.434;2023-03-04T12:55:23;16.42;;;10.45;;
63567;SDS011;49715;42.386;20.434;2023-03-04T12:57:58;23.30;;;12.07;;
63567;SDS011;49715;42.386;20.434;2023-03-04T13:06:13;26.20;;;12.02;;
63567;SDS011;49715;42.386;20.434;2023-03-04T13:11:49;24.23;;;11.60;;
63567;SDS011;49715;42.386;20.434;2023-03-04T13:14:25;22.23;;;12.68;;
63567;SDS011;49715;42.386;20.434;2023-03-04T13:20:12;21.85;;;12.35;;
63567;SDS011;49715;42.386;20.434;2023-03-04T13:22:59;18.98;;;11.20;;
63567;SDS011;49715;42.386;20.434;2023-03-04T13:51:30;23.02;;;13.38;;
63567;SDS011;49715;42.386;20.434;2023-03-04T13:59:46;28.67;;;12.55;;
63567;SDS011;49715;42.386;20.434;2023-03-04T14:02:19;22.08;;;11.45;;
63567;SDS011;49715;42.386;20.434;2023-03-04T14:07:29;18.30;;;11.37;;
63567;SDS011;49715;42.386;20.434;2023-03-04T14:12:31;20.35;;;12.00;;
63567;SDS011;49715;42.386;20.434;2023-03-04T14:15:22;23.33;;;12.00;;
63567;SDS011;49715;42.386;20.434;2023-03-04T14:17:52;27.05;;;13.00;;
63567;SDS011;49715;42.386;20.434;2023-03-04T14:22:52;27.35;;;14.10;;
63567;SDS011;49715;42.386;20.434;2023-03-04T14:25:22;20.17;;;12.10;;
63567;SDS011;49715;42.386;20.434;2023-03-04T14:27:49;25.05;;;11.18;;
63567;SDS011;49715;42.386;20.434;2023-03-04T14:30:27;18.50;;;11.00;;
63567;SDS011;49715;42.386;20.434;2023-03-04T14:32:55;27.65;;;12.88;;
63567;SDS011;49715;42.386;20.434;2023-03-04T14:35:27;29.75;;;13.30;;
63567;SDS011;49715;42.386;20.434;2023-03-04T14:37:59;19.55;;;11.98;;
63567;SDS011;49715;42.386;20.434;2023-03-04T14:40:49;28.27;;;11.80;;
63567;SDS011;49715;42.386;20.434;2023-03-04T14:43:20;23.00;;;12.65;;
63567;SDS011;49715;42.386;20.434;2023-03-04T14:45:53;19.98;;;12.40;;
63567;SDS011;49715;42.386;20.434;2023-03-04T14:48:32;30.05;;;13.52;;
63567;SDS011;49715;42.386;20.434;2023-03-04T14:51:01;18.83;;;11.60;;
63567;SDS011;49715;42.386;20.434;2023-03-04T14:53:31;26.23;;;11.43;;
63567;SDS011;49715;42.386;20.434;2023-03-04T14:55:59;21.50;;;11.60;;
63567;SDS011;49715;42.386;20.434;2023-03-04T14:58:32;27.25;;;12.48;;
63567;SDS011;49715;42.386;20.434;2023-03-04T15:01:18;27.17;;;12.52;;
63567;SDS011;49715;42.386;20.434;2023-03-04T15:03:59;22.20;;;13.30;;
63567;SDS011;49715;42.386;20.434;2023-03-04T15:06:28;21.10;;;12.13;;
63567;SDS011;49715;42.386;20.434;2023-03-04T15:11:48;22.08;;;12.38;;
63567;SDS011;49715;42.386;20.434;2023-03-04T15:19:57;22.48;;;12.00;;
63567;SDS011;49715;42.386;20.434;2023-03-04T15:25:21;19.73;;;12.07;;
63567;SDS011;49715;42.386;20.434;2023-03-04T15:27:49;22.92;;;11.63;;
63567;SDS011;49715;42.386;20.434;2023-03-04T15:30:20;18.98;;;11.20;;
63567;SDS011;49715;42.386;20.434;2023-03-04T15:32:49;21.02;;;11.88;;
63567;SDS011;49715;42.386;20.434;2023-03-04T15:37:43;31.88;;;13.38;;
63567;SDS011;49715;42.386;20.434;2023-03-04T15:42:59;35.97;;;16.25;;
63567;SDS011;49715;42.386;20.434;2023-03-04T15:45:29;26.23;;;14.77;;
63567;SDS011;49715;42.386;20.434;2023-03-04T15:48:01;24.60;;;15.40;;
63567;SDS011;49715;42.386;20.434;2023-03-04T15:50:33;29.50;;;14.90;;
63567;SDS011;49715;42.386;20.434;2023-03-04T15:53:19;31.67;;;15.50;;
63567;SDS011;49715;42.386;20.434;2023-03-04T15:56:03;27.55;;;16.23;;
63567;SDS011;49715;42.386;20.434;2023-03-04T15:58:30;27.98;;;15.25;;
63567;SDS011;49715;42.386;20.434;2023-03-04T16:00:57;25.42;;;15.73;;
63567;SDS011;49715;42.386;20.434;2023-03-04T16:03:23;21.87;;;16.20;;
63567;SDS011;49715;42.386;20.434;2023-03-04T16:05:53;23.05;;;13.80;;
63567;SDS011;49715;42.386;20.434;2023-03-04T16:08:21;25.37;;;14.90;;
63567;SDS011;49715;42.386;20.434;2023-03-04T16:10:52;30.20;;;16.30;;
63567;SDS011;49715;42.386;20.434;2023-03-04T16:13:21;28.40;;;14.73;;
63567;SDS011;49715;42.386;20.434;2023-03-04T16:15:48;26.52;;;15.70;;
63567;SDS011;49715;42.386;20.434;2023-03-04T16:18:15;27.50;;;17.38;;
63567;SDS011;49715;42.386;20.434;2023-03-04T16:20:43;31.42;;;17.17;;
63567;SDS011;49715;42.386;20.434;2023-03-04T16:23:14;34.47;;;18.25;;
63567;SDS011;49715;42.386;20.434;2023-03-04T16:25:44;32.63;;;18.83;;
63567;SDS011;49715;42.386;20.434;2023-03-04T16:28:12;39.08;;;16.98;;
63567;SDS011;49715;42.386;20.434;2023-03-04T16:30:39;33.00;;;19.20;;
63567;SDS011;49715;42.386;20.434;2023-03-04T16:33:06;32.45;;;19.50;;
63567;SDS011;49715;42.386;20.434;2023-03-04T16:35:34;36.53;;;19.10;;
63567;SDS011;49715;42.386;20.434;2023-03-04T16:38:01;37.60;;;19.73;;
63567;SDS011;49715;42.386;20.434;2023-03-04T16:40:31;39.50;;;20.75;;
63567;SDS011;49715;42.386;20.434;2023-03-04T16:42:58;51.47;;;24.05;;
63567;SDS011;49715;42.386;20.434;2023-03-04T16:45:25;39.63;;;21.27;;
63567;SDS011;49715;42.386;20.434;2023-03-04T16:47:56;47.15;;;23.58;;
63567;SDS011;49715;42.386;20.434;2023-03-04T16:50:23;41.22;;;23.45;;
63567;SDS011;49715;42.386;20.434;2023-03-04T16:52:53;44.65;;;23.13;;
63567;SDS011;49715;42.386;20.434;2023-03-04T16:55:22;37.65;;;23.15;;
63567;SDS011;49715;42.386;20.434;2023-03-04T16:57:50;35.47;;;21.38;;
63567;SDS011;49715;42.386;20.434;2023-03-04T17:00:18;33.58;;;20.83;;
63567;SDS011;49715;42.386;20.434;2023-03-04T17:02:48;38.92;;;23.20;;
63567;SDS011;49715;42.386;20.434;2023-03-04T17:05:25;45.80;;;26.63;;
63567;SDS011;49715;42.386;20.434;2023-03-04T17:07:54;56.78;;;30.75;;
63567;SDS011;49715;42.386;20.434;2023-03-04T17:10:21;45.20;;;27.50;;
63567;SDS011;49715;42.386;20.434;2023-03-04T17:12:53;65.18;;;32.33;;
63567;SDS011;49715;42.386;20.434;2023-03-04T17:15:20;60.63;;;34.47;;
63567;SDS011;49715;42.386;20.434;2023-03-04T17:17:47;62.17;;;35.85;;
63567;SDS011;49715;42.386;20.434;2023-03-04T17:20:14;63.40;;;34.37;;
63567;SDS011;49715;42.386;20.434;2023-03-04T17:22:42;67.60;;;35.38;;
63567;SDS011;49715;42.386;20.434;2023-03-04T17:25:09;78.20;;;38.92;;
63567;SDS011;49715;42.386;20.434;2023-03-04T17:27:37;61.58;;;31.63;;
63567;SDS011;49715;42.386;20.434;2023-03-04T17:30:04;64.25;;;34.30;;
63567;SDS011;49715;42.386;20.434;2023-03-04T17:32:32;59.22;;;32.40;;
63567;SDS011;49715;42.386;20.434;2023-03-04T17:34:59;48.63;;;29.35;;